sensor_id;sensor_type;location;lat;lon;timestamp;temperature;humidity
19397;DHT22;9834;48.076;11.878;2023-03-15T00:00:52;2.00;99.90
19397;DHT22;9834;48.076;11.878;2023-03-15T00:03:22;2.00;99.90
19397;DHT22;9834;48.076;11.878;2023-03-15T00:05:50;1.90;99.90
19397;DHT22;9834;48.076;11.878;2023-03-15T00:08:18;1.90;99.90
19397;DHT22;9834;48.076;11.878;2023-03-15T00:10:47;1.90;99.90
19397;DHT22;9834;48.076;11.878;2023-03-15T00:13:15;1.90;99.90
19397;DHT22;9834;48.076;11.878;2023-03-15T00:15:48;1.90;99.90
19397;DHT22;9834;48.076;11.878;2023-03-15T00:18:17;2.00;99.90
19397;DHT22;9834;48.076;11.878;2023-03-15T00:20:46;2.00;99.90
19397;DHT22;9834;48.076;11.878;2023-03-15T00:23:14;2.10;99.90
19397;DHT22;9834;48.076;11.878;2023-03-15T00:25:43;2.20;99.90
19397;DHT22;9834;48.076;11.878;2023-03-15T00:28:11;2.30;99.90
19397;DHT22;9834;48.076;11.878;2023-03-15T00:30:38;2.40;99.90
19397;DHT22;9834;48.076;11.878;2023-03-15T00:33:06;2.60;99.90
19397;DHT22;9834;48.076;11.878;2023-03-15T00:35:37;2.70;99.90
19397;DHT22;9834;48.076;11.878;2023-03-15T00:38:06;2.80;99.90
19397;DHT22;9834;48.076;11.878;2023-03-15T00:40:35;2.90;99.90
19397;DHT22;9834;48.076;11.878;2023-03-15T00:43:02;2.90;99.90
19397;DHT22;9834;48.076;11.878;2023-03-15T00:45:30;3.00;99.90
19397;DHT22;9834;48.076;11.878;2023-03-15T00:47:57;3.00;99.90
19397;DHT22;9834;48.076;11.878;2023-03-15T00:50:25;3.00;99.90
19397;DHT22;9834;48.076;11.878;2023-03-15T00:52:52;3.00;99.90
19397;DHT22;9834;48.076;11.878;2023-03-15T00:55:22;2.90;99.90
19397;DHT22;9834;48.076;11.878;2023-03-15T00:57:49;3.00;99.90
19397;DHT22;9834;48.076;11.878;2023-03-15T01:00:18;3.00;99.90
19397;DHT22;9834;48.076;11.878;2023-03-15T01:02:49;2.80;99.90
19397;DHT22;9834;48.076;11.878;2023-03-15T01:05:17;2.70;99.90
19397;DHT22;9834;48.076;11.878;2023-03-15T01:07:44;2.50;99.90
19397;DHT22;9834;48.076;11.878;2023-03-15T01:10:13;2.40;99.90
19397;DHT22;9834;48.076;11.878;2023-03-15T01:12:42;2.40;99.90
19397;DHT22;9834;48.076;11.878;2023-03-15T01:15:12;2.40;99.90
19397;DHT22;9834;48.076;11.878;2023-03-15T01:17:41;2.40;99.90
19397;DHT22;9834;48.076;11.878;2023-03-15T01:20:10;2.40;99.90
19397;DHT22;9834;48.076;11.878;2023-03-15T01:22:38;2.40;99.90
19397;DHT22;9834;48.076;11.878;2023-03-15T01:25:07;2.40;99.90
19397;DHT22;9834;48.076;11.878;2023-03-15T01:27:35;2.20;99.90
19397;DHT22;9834;48.076;11.878;2023-03-15T01:30:05;1.80;99.90
19397;DHT22;9834;48.076;11.878;2023-03-15T01:32:34;1.30;99.90
19397;DHT22;9834;48.076;11.878;2023-03-15T01:35:03;1.10;99.90
19397;DHT22;9834;48.076;11.878;2023-03-15T01:37:30;1.00;99.90
19397;DHT22;9834;48.076;11.878;2023-03-15T01:39:59;0.90;99.90
19397;DHT22;9834;48.076;11.878;2023-03-15T01:42:27;0.90;99.90
19397;DHT22;9834;48.076;11.878;2023-03-15T01:44:56;0.90;99.90
19397;DHT22;9834;48.076;11.878;2023-03-15T01:47:26;0.90;99.90
19397;DHT22;9834;48.076;11.878;2023-03-15T01:49:59;0.90;99.90
19397;DHT22;9834;48.076;11.878;2023-03-15T01:52:32;0.90;99.90
19397;DHT22;9834;48.076;11.878;2023-03-15T01:55:04;0.90;99.90
19397;DHT22;9834;48.076;11.878;2023-03-15T01:57:37;0.90;99.90
19397;DHT22;9834;48.076;11.878;2023-03-15T02:00:10;0.90;99.90
19397;DHT22;9834;48.076;11.878;2023-03-15T02:02:43;0.90;99.90
19397;DHT22;9834;48.076;11.878;2023-03-15T02:05:18;0.90;99.90
19397;DHT22;9834;48.076;11.878;2023-03-15T02:07:48;0.90;99.90
19397;DHT22;9834;48.076;11.878;2023-03-15T02:10:22;1.00;99.90
19397;DHT22;9834;48.076;11.878;2023-03-15T02:12:51;0.90;99.90
19397;DHT22;9834;48.076;11.878;2023-03-15T02:15:20;0.90;99.90
19397;DHT22;9834;48.076;11.878;2023-03-15T02:17:49;1.00;99.90
19397;DHT22;9834;48.076;11.878;2023-03-15T02:20:26;1.00;99.90
19397;DHT22;9834;48.076;11.878;2023-03-15T02:22:59;1.00;99.90
19397;DHT22;9834;48.076;11.878;2023-03-15T02:25:35;1.00;99.90
19397;DHT22;9834;48.076;11.878;2023-03-15T02:28:09;1.00;99.90
19397;DHT22;9834;48.076;11.878;2023-03-15T02:30:38;1.10;99.90
19397;DHT22;9834;48.076;11.878;2023-03-15T02:33:09;1.10;99.90
19397;DHT22;9834;48.076;11.878;2023-03-15T02:35:39;1.10;99.90
19397;DHT22;9834;48.076;11.878;2023-03-15T02:38:06;1.10;99.90
19397;DHT22;9834;48.076;11.878;2023-03-15T02:40:34;1.20;99.90
19397;DHT22;9834;48.076;11.878;2023-03-15T02:43:07;1.10;99.90
19397;DHT22;9834;48.076;11.878;2023-03-15T02:45:37;1.10;99.90
19397;DHT22;9834;48.076;11.878;2023-03-15T02:48:06;1.10;99.90
19397;DHT22;9834;48.076;11.878;2023-03-15T02:50:35;1.10;99.90
19397;DHT22;9834;48.076;11.878;2023-03-15T02:53:03;1.20;99.90
19397;DHT22;9834;48.076;11.878;2023-03-15T02:55:30;1.20;99.90
19397;DHT22;9834;48.076;11.878;2023-03-15T02:57:58;1.20;99.90
19397;DHT22;9834;48.076;11.878;2023-03-15T03:00:28;1.20;99.90
19397;DHT22;9834;48.076;11.878;2023-03-15T03:02:55;1.20;99.90
19397;DHT22;9834;48.076;11.878;2023-03-15T03:05:23;1.20;99.90
19397;DHT22;9834;48.076;11.878;2023-03-15T03:07:51;1.30;99.90
19397;DHT22;9834;48.076;11.878;2023-03-15T03:10:20;1.30;99.90
19397;DHT22;9834;48.076;11.878;2023-03-15T03:12:48;1.20;99.90
19397;DHT22;9834;48.076;11.878;2023-03-15T03:15:18;1.20;99.90
19397;DHT22;9834;48.076;11.878;2023-03-15T03:17:48;1.30;99.90
19397;DHT22;9834;48.076;11.878;2023-03-15T03:20:16;1.40;99.90
19397;DHT22;9834;48.076;11.878;2023-03-15T03:22:44;1.40;99.90
19397;DHT22;9834;48.076;11.878;2023-03-15T03:25:11;1.40;99.90
19397;DHT22;9834;48.076;11.878;2023-03-15T03:27:40;1.40;99.90
19397;DHT22;9834;48.076;11.878;2023-03-15T03:30:11;1.40;99.90
19397;DHT22;9834;48.076;11.878;2023-03-15T03:32:40;1.30;99.90
19397;DHT22;9834;48.076;11.878;2023-03-15T03:35:11;1.40;99.90
19397;DHT22;9834;48.076;11.878;2023-03-15T03:37:39;1.30;99.90
19397;DHT22;9834;48.076;11.878;2023-03-15T03:40:08;1.30;99.90
19397;DHT22;9834;48.076;11.878;2023-03-15T03:42:36;1.20;99.90
19397;DHT22;9834;48.076;11.878;2023-03-15T03:45:04;1.20;99.90
19397;DHT22;9834;48.076;11.878;2023-03-15T03:47:32;1.10;99.90
19397;DHT22;9834;48.076;11.878;2023-03-15T03:49:59;1.00;99.90
19397;DHT22;9834;48.076;11.878;2023-03-15T03:52:28;0.90;99.90
19397;DHT22;9834;48.076;11.878;2023-03-15T03:54:56;0.90;99.90
19397;DHT22;9834;48.076;11.878;2023-03-15T03:57:23;0.80;99.90
19397;DHT22;9834;48.076;11.878;2023-03-15T03:59:51;0.80;99.90
19397;DHT22;9834;48.076;11.878;2023-03-15T04:02:20;0.80;99.90
19397;DHT22;9834;48.076;11.878;2023-03-15T04:04:48;0.80;99.90
19397;DHT22;9834;48.076;11.878;2023-03-15T04:07:16;0.80;99.90
19397;DHT22;9834;48.076;11.878;2023-03-15T04:09:45;0.90;99.90
19397;DHT22;9834;48.076;11.878;2023-03-15T04:12:12;0.90;99.90
19397;DHT22;9834;48.076;11.878;2023-03-15T04:14:39;0.80;99.90
19397;DHT22;9834;48.076;11.878;2023-03-15T04:17:07;0.90;99.90
19397;DHT22;9834;48.076;11.878;2023-03-15T04:19:35;0.80;99.90
19397;DHT22;9834;48.076;11.878;2023-03-15T04:22:03;0.90;99.90
19397;DHT22;9834;48.076;11.878;2023-03-15T04:24:35;0.80;99.90
19397;DHT22;9834;48.076;11.878;2023-03-15T04:27:06;0.90;99.90
19397;DHT22;9834;48.076;11.878;2023-03-15T04:29:33;0.80;99.90
19397;DHT22;9834;48.076;11.878;2023-03-15T04:32:01;0.90;99.90
19397;DHT22;9834;48.076;11.878;2023-03-15T04:34:29;0.80;99.90
19397;DHT22;9834;48.076;11.878;2023-03-15T04:36:57;0.80;99.90
19397;DHT22;9834;48.076;11.878;2023-03-15T04:39:24;0.80;99.90
19397;DHT22;9834;48.076;11.878;2023-03-15T04:41:52;0.80;99.90
19397;DHT22;9834;48.076;11.878;2023-03-15T04:44:22;0.80;99.90
19397;DHT22;9834;48.076;11.878;2023-03-15T04:46:51;0.80;99.90
19397;DHT22;9834;48.076;11.878;2023-03-15T04:49:19;0.80;99.90
19397;DHT22;9834;48.076;11.878;2023-03-15T04:51:46;0.80;99.90
19397;DHT22;9834;48.076;11.878;2023-03-15T04:54:14;0.80;99.90
19397;DHT22;9834;48.076;11.878;2023-03-15T04:56:41;0.80;99.90
19397;DHT22;9834;48.076;11.878;2023-03-15T04:59:09;0.80;99.90
19397;DHT22;9834;48.076;11.878;2023-03-15T05:01:38;0.80;99.90
19397;DHT22;9834;48.076;11.878;2023-03-15T05:04:05;0.70;99.90
19397;DHT22;9834;48.076;11.878;2023-03-15T05:06:32;0.70;99.90
19397;DHT22;9834;48.076;11.878;2023-03-15T05:09:00;0.70;99.90
19397;DHT22;9834;48.076;11.878;2023-03-15T05:11:28;0.80;99.90
19397;DHT22;9834;48.076;11.878;2023-03-15T05:13:56;0.70;99.90
19397;DHT22;9834;48.076;11.878;2023-03-15T05:16:23;0.70;99.90
19397;DHT22;9834;48.076;11.878;2023-03-15T05:18:51;0.70;99.90
19397;DHT22;9834;48.076;11.878;2023-03-15T05:21:18;0.70;99.90
19397;DHT22;9834;48.076;11.878;2023-03-15T05:23:49;0.70;99.90
19397;DHT22;9834;48.076;11.878;2023-03-15T05:26:16;0.70;99.90
19397;DHT22;9834;48.076;11.878;2023-03-15T05:28:44;0.70;99.90
19397;DHT22;9834;48.076;11.878;2023-03-15T05:31:11;0.70;99.90
19397;DHT22;9834;48.076;11.878;2023-03-15T05:33:39;0.70;99.90
19397;DHT22;9834;48.076;11.878;2023-03-15T05:36:13;0.80;99.90
19397;DHT22;9834;48.076;11.878;2023-03-15T05:38:40;0.70;99.90
19397;DHT22;9834;48.076;11.878;2023-03-15T05:41:08;0.70;99.90
19397;DHT22;9834;48.076;11.878;2023-03-15T05:43:36;0.70;99.90
19397;DHT22;9834;48.076;11.878;2023-03-15T05:46:04;0.70;99.90
19397;DHT22;9834;48.076;11.878;2023-03-15T05:48:31;0.70;99.90
19397;DHT22;9834;48.076;11.878;2023-03-15T05:50:59;0.70;99.90
19397;DHT22;9834;48.076;11.878;2023-03-15T05:53:27;0.80;99.90
19397;DHT22;9834;48.076;11.878;2023-03-15T05:55:55;0.70;99.90
19397;DHT22;9834;48.076;11.878;2023-03-15T05:58:23;0.70;99.90
19397;DHT22;9834;48.076;11.878;2023-03-15T06:00:50;0.70;99.90
19397;DHT22;9834;48.076;11.878;2023-03-15T06:03:18;0.60;99.90
19397;DHT22;9834;48.076;11.878;2023-03-15T06:05:45;0.70;99.90
19397;DHT22;9834;48.076;11.878;2023-03-15T06:08:12;0.70;99.90
19397;DHT22;9834;48.076;11.878;2023-03-15T06:10:42;0.70;99.90
19397;DHT22;9834;48.076;11.878;2023-03-15T06:13:09;0.80;99.90
19397;DHT22;9834;48.076;11.878;2023-03-15T06:15:36;0.80;99.90
19397;DHT22;9834;48.076;11.878;2023-03-15T06:18:04;0.80;99.90
19397;DHT22;9834;48.076;11.878;2023-03-15T06:20:31;0.80;99.90
19397;DHT22;9834;48.076;11.878;2023-03-15T06:22:58;0.80;99.90
19397;DHT22;9834;48.076;11.878;2023-03-15T06:25:25;0.80;99.90
19397;DHT22;9834;48.076;11.878;2023-03-15T06:27:54;0.80;99.90
19397;DHT22;9834;48.076;11.878;2023-03-15T06:30:21;0.80;99.90
19397;DHT22;9834;48.076;11.878;2023-03-15T06:32:50;0.80;99.90
19397;DHT22;9834;48.076;11.878;2023-03-15T06:35:17;0.80;99.90
19397;DHT22;9834;48.076;11.878;2023-03-15T06:37:45;0.80;99.90
19397;DHT22;9834;48.076;11.878;2023-03-15T06:40:13;0.70;99.90
19397;DHT22;9834;48.076;11.878;2023-03-15T06:42:40;0.80;99.90
19397;DHT22;9834;48.076;11.878;2023-03-15T06:45:10;0.80;99.90
19397;DHT22;9834;48.076;11.878;2023-03-15T06:47:38;0.80;99.90
19397;DHT22;9834;48.076;11.878;2023-03-15T06:50:06;0.80;99.90
19397;DHT22;9834;48.076;11.878;2023-03-15T06:52:34;0.80;99.90
19397;DHT22;9834;48.076;11.878;2023-03-15T06:55:02;0.90;99.90
19397;DHT22;9834;48.076;11.878;2023-03-15T06:57:29;0.90;99.90
19397;DHT22;9834;48.076;11.878;2023-03-15T06:59:57;0.90;99.90
19397;DHT22;9834;48.076;11.878;2023-03-15T07:02:26;0.90;99.90
19397;DHT22;9834;48.076;11.878;2023-03-15T07:04:55;0.90;99.90
19397;DHT22;9834;48.076;11.878;2023-03-15T07:07:22;0.90;99.90
19397;DHT22;9834;48.076;11.878;2023-03-15T07:09:50;0.90;99.90
19397;DHT22;9834;48.076;11.878;2023-03-15T07:12:17;1.00;99.90
19397;DHT22;9834;48.076;11.878;2023-03-15T07:14:45;1.00;99.90
19397;DHT22;9834;48.076;11.878;2023-03-15T07:17:12;0.90;99.90
19397;DHT22;9834;48.076;11.878;2023-03-15T07:19:41;1.00;99.90
19397;DHT22;9834;48.076;11.878;2023-03-15T07:22:09;1.10;99.90
19397;DHT22;9834;48.076;11.878;2023-03-15T07:24:36;1.10;99.90
19397;DHT22;9834;48.076;11.878;2023-03-15T07:27:04;1.10;99.90
19397;DHT22;9834;48.076;11.878;2023-03-15T07:29:31;1.00;99.90
19397;DHT22;9834;48.076;11.878;2023-03-15T07:31:59;1.10;99.90
19397;DHT22;9834;48.076;11.878;2023-03-15T07:34:26;1.00;99.90
19397;DHT22;9834;48.076;11.878;2023-03-15T07:36:55;1.10;99.90
19397;DHT22;9834;48.076;11.878;2023-03-15T07:39:23;1.10;99.90
19397;DHT22;9834;48.076;11.878;2023-03-15T07:41:51;1.20;99.90
19397;DHT22;9834;48.076;11.878;2023-03-15T07:44:19;1.20;99.90
19397;DHT22;9834;48.076;11.878;2023-03-15T07:46:46;1.20;99.90
19397;DHT22;9834;48.076;11.878;2023-03-15T07:49:14;1.20;99.90
19397;DHT22;9834;48.076;11.878;2023-03-15T07:51:41;1.30;99.90
19397;DHT22;9834;48.076;11.878;2023-03-15T07:54:10;1.30;99.90
19397;DHT22;9834;48.076;11.878;2023-03-15T07:56:37;1.30;99.90
19397;DHT22;9834;48.076;11.878;2023-03-15T07:59:05;1.20;99.90
19397;DHT22;9834;48.076;11.878;2023-03-15T08:01:32;1.30;99.90
19397;DHT22;9834;48.076;11.878;2023-03-15T08:04:00;1.30;99.90
19397;DHT22;9834;48.076;11.878;2023-03-15T08:06:27;1.40;99.90
19397;DHT22;9834;48.076;11.878;2023-03-15T08:08:55;1.40;99.90
19397;DHT22;9834;48.076;11.878;2023-03-15T08:11:24;1.40;99.90
19397;DHT22;9834;48.076;11.878;2023-03-15T08:13:51;1.40;99.90
19397;DHT22;9834;48.076;11.878;2023-03-15T08:16:19;1.50;99.90
19397;DHT22;9834;48.076;11.878;2023-03-15T08:18:46;1.70;99.90
19397;DHT22;9834;48.076;11.878;2023-03-15T08:21:13;1.70;99.90
19397;DHT22;9834;48.076;11.878;2023-03-15T08:23:41;1.80;99.90
19397;DHT22;9834;48.076;11.878;2023-03-15T08:26:08;1.60;99.90
19397;DHT22;9834;48.076;11.878;2023-03-15T08:28:37;1.50;99.90
19397;DHT22;9834;48.076;11.878;2023-03-15T08:31:06;1.50;99.90
19397;DHT22;9834;48.076;11.878;2023-03-15T08:33:33;1.50;99.90
19397;DHT22;9834;48.076;11.878;2023-03-15T08:36:01;1.70;99.90
19397;DHT22;9834;48.076;11.878;2023-03-15T08:38:28;1.80;99.90
19397;DHT22;9834;48.076;11.878;2023-03-15T08:40:56;2.00;99.90
19397;DHT22;9834;48.076;11.878;2023-03-15T08:43:24;2.10;99.90
19397;DHT22;9834;48.076;11.878;2023-03-15T08:45:53;2.00;99.90
19397;DHT22;9834;48.076;11.878;2023-03-15T08:48:20;2.00;99.90
19397;DHT22;9834;48.076;11.878;2023-03-15T08:50:48;2.00;99.90
19397;DHT22;9834;48.076;11.878;2023-03-15T08:53:15;2.10;99.90
19397;DHT22;9834;48.076;11.878;2023-03-15T08:55:43;2.30;99.90
19397;DHT22;9834;48.076;11.878;2023-03-15T08:58:11;2.70;99.90
19397;DHT22;9834;48.076;11.878;2023-03-15T09:00:39;2.80;99.90
19397;DHT22;9834;48.076;11.878;2023-03-15T09:03:08;2.60;99.90
19397;DHT22;9834;48.076;11.878;2023-03-15T09:05:36;2.60;99.90
19397;DHT22;9834;48.076;11.878;2023-03-15T09:08:04;2.50;99.90
19397;DHT22;9834;48.076;11.878;2023-03-15T09:10:31;2.40;99.90
19397;DHT22;9834;48.076;11.878;2023-03-15T09:12:59;2.20;99.90
19397;DHT22;9834;48.076;11.878;2023-03-15T09:15:26;2.20;99.90
19397;DHT22;9834;48.076;11.878;2023-03-15T09:17:54;2.50;99.90
19397;DHT22;9834;48.076;11.878;2023-03-15T09:20:23;2.70;99.90
19397;DHT22;9834;48.076;11.878;2023-03-15T09:22:54;2.80;99.90
19397;DHT22;9834;48.076;11.878;2023-03-15T09:25:22;3.00;99.90
19397;DHT22;9834;48.076;11.878;2023-03-15T09:27:50;3.00;99.90
19397;DHT22;9834;48.076;11.878;2023-03-15T09:30:18;2.80;99.90
19397;DHT22;9834;48.076;11.878;2023-03-15T09:32:46;2.60;99.90
19397;DHT22;9834;48.076;11.878;2023-03-15T09:35:15;2.40;99.90
19397;DHT22;9834;48.076;11.878;2023-03-15T09:37:44;2.50;99.90
19397;DHT22;9834;48.076;11.878;2023-03-15T09:40:15;2.90;99.90
19397;DHT22;9834;48.076;11.878;2023-03-15T09:42:54;3.20;99.90
19397;DHT22;9834;48.076;11.878;2023-03-15T09:45:28;3.50;99.90
19397;DHT22;9834;48.076;11.878;2023-03-15T09:48:02;3.60;99.90
19397;DHT22;9834;48.076;11.878;2023-03-15T09:50:35;3.90;99.90
19397;DHT22;9834;48.076;11.878;2023-03-15T09:53:09;3.70;99.90
19397;DHT22;9834;48.076;11.878;2023-03-15T09:55:38;3.80;99.90
19397;DHT22;9834;48.076;11.878;2023-03-15T09:58:10;3.60;99.90
19397;DHT22;9834;48.076;11.878;2023-03-15T10:00:42;3.70;99.90
19397;DHT22;9834;48.076;11.878;2023-03-15T10:03:16;3.80;99.90
19397;DHT22;9834;48.076;11.878;2023-03-15T10:05:47;4.10;99.90
19397;DHT22;9834;48.076;11.878;2023-03-15T10:08:18;4.30;99.90
19397;DHT22;9834;48.076;11.878;2023-03-15T10:10:50;4.40;99.90
19397;DHT22;9834;48.076;11.878;2023-03-15T10:13:37;4.20;99.90
19397;DHT22;9834;48.076;11.878;2023-03-15T10:16:20;3.90;99.90
19397;DHT22;9834;48.076;11.878;2023-03-15T10:19:00;4.00;99.90
19397;DHT22;9834;48.076;11.878;2023-03-15T10:21:36;3.60;99.90
19397;DHT22;9834;48.076;11.878;2023-03-15T10:24:14;3.30;99.90
19397;DHT22;9834;48.076;11.878;2023-03-15T10:26:42;3.20;99.90
19397;DHT22;9834;48.076;11.878;2023-03-15T10:29:13;3.20;99.90
19397;DHT22;9834;48.076;11.878;2023-03-15T10:31:43;3.20;99.90
19397;DHT22;9834;48.076;11.878;2023-03-15T10:34:13;3.60;99.90
19397;DHT22;9834;48.076;11.878;2023-03-15T10:36:46;3.50;99.90
19397;DHT22;9834;48.076;11.878;2023-03-15T10:39:15;3.40;99.90
19397;DHT22;9834;48.076;11.878;2023-03-15T10:41:45;3.40;99.90
19397;DHT22;9834;48.076;11.878;2023-03-15T10:44:15;3.60;99.90
19397;DHT22;9834;48.076;11.878;2023-03-15T10:46:59;3.70;99.90
19397;DHT22;9834;48.076;11.878;2023-03-15T10:49:33;3.50;99.90
19397;DHT22;9834;48.076;11.878;2023-03-15T10:52:01;3.90;99.90
19397;DHT22;9834;48.076;11.878;2023-03-15T10:54:31;4.60;99.90
19397;DHT22;9834;48.076;11.878;2023-03-15T10:57:01;5.10;99.90
19397;DHT22;9834;48.076;11.878;2023-03-15T10:59:31;5.30;99.90
19397;DHT22;9834;48.076;11.878;2023-03-15T11:02:19;5.40;92.40
19397;DHT22;9834;48.076;11.878;2023-03-15T11:04:52;5.10;87.20
19397;DHT22;9834;48.076;11.878;2023-03-15T11:07:25;4.90;88.70
19397;DHT22;9834;48.076;11.878;2023-03-15T11:09:58;4.90;88.00
19397;DHT22;9834;48.076;11.878;2023-03-15T11:12:27;5.20;81.90
19397;DHT22;9834;48.076;11.878;2023-03-15T11:14:57;6.30;74.60
19397;DHT22;9834;48.076;11.878;2023-03-15T11:17:27;7.40;70.70
19397;DHT22;9834;48.076;11.878;2023-03-15T11:19:57;8.10;63.60
19397;DHT22;9834;48.076;11.878;2023-03-15T11:22:25;8.50;63.80
19397;DHT22;9834;48.076;11.878;2023-03-15T11:24:55;8.70;58.30
19397;DHT22;9834;48.076;11.878;2023-03-15T11:27:24;9.00;61.60
19397;DHT22;9834;48.076;11.878;2023-03-15T11:29:55;9.40;56.50
19397;DHT22;9834;48.076;11.878;2023-03-15T11:32:25;9.50;57.70
19397;DHT22;9834;48.076;11.878;2023-03-15T11:34:57;9.70;56.60
19397;DHT22;9834;48.076;11.878;2023-03-15T11:37:30;10.00;55.40
19397;DHT22;9834;48.076;11.878;2023-03-15T11:40:02;10.30;54.60
19397;DHT22;9834;48.076;11.878;2023-03-15T11:42:37;10.40;54.40
19397;DHT22;9834;48.076;11.878;2023-03-15T11:45:15;10.40;51.10
19397;DHT22;9834;48.076;11.878;2023-03-15T11:47:47;9.00;51.50
19397;DHT22;9834;48.076;11.878;2023-03-15T11:50:16;8.30;55.30
19397;DHT22;9834;48.076;11.878;2023-03-15T11:52:47;9.30;55.20
19397;DHT22;9834;48.076;11.878;2023-03-15T11:55:19;10.50;52.30
19397;DHT22;9834;48.076;11.878;2023-03-15T11:57:49;9.40;53.60
19397;DHT22;9834;48.076;11.878;2023-03-15T12:00:25;9.00;54.20
19397;DHT22;9834;48.076;11.878;2023-03-15T12:02:55;8.10;54.40
19397;DHT22;9834;48.076;11.878;2023-03-15T12:05:44;7.50;55.80
19397;DHT22;9834;48.076;11.878;2023-03-15T12:08:21;7.00;57.60
19397;DHT22;9834;48.076;11.878;2023-03-15T12:10:51;6.50;58.20
19397;DHT22;9834;48.076;11.878;2023-03-15T12:13:22;8.00;59.80
19397;DHT22;9834;48.076;11.878;2023-03-15T12:15:51;10.10;52.40
19397;DHT22;9834;48.076;11.878;2023-03-15T12:18:30;11.50;50.80
19397;DHT22;9834;48.076;11.878;2023-03-15T12:21:06;12.50;47.50
19397;DHT22;9834;48.076;11.878;2023-03-15T12:23:40;13.00;44.10
19397;DHT22;9834;48.076;11.878;2023-03-15T12:26:22;12.50;44.90
19397;DHT22;9834;48.076;11.878;2023-03-15T12:29:01;11.10;44.80
19397;DHT22;9834;48.076;11.878;2023-03-15T12:32:03;9.20;48.10
19397;DHT22;9834;48.076;11.878;2023-03-15T12:34:50;7.50;51.70
19397;DHT22;9834;48.076;11.878;2023-03-15T12:37:21;8.20;52.30
19397;DHT22;9834;48.076;11.878;2023-03-15T12:39:51;9.20;49.50
19397;DHT22;9834;48.076;11.878;2023-03-15T12:45:42;12.60;43.00
19397;DHT22;9834;48.076;11.878;2023-03-15T12:48:20;11.90;41.70
19397;DHT22;9834;48.076;11.878;2023-03-15T12:51:06;11.40;41.40
19397;DHT22;9834;48.076;11.878;2023-03-15T12:53:49;10.80;42.40
19397;DHT22;9834;48.076;11.878;2023-03-15T12:59:22;9.60;45.80
19397;DHT22;9834;48.076;11.878;2023-03-15T13:01:53;9.80;46.10
19397;DHT22;9834;48.076;11.878;2023-03-15T13:04:21;11.80;43.20
19397;DHT22;9834;48.076;11.878;2023-03-15T13:07:01;12.60;42.80
19397;DHT22;9834;48.076;11.878;2023-03-15T13:10:00;11.20;44.30
19397;DHT22;9834;48.076;11.878;2023-03-15T13:12:36;9.60;47.30
19397;DHT22;9834;48.076;11.878;2023-03-15T13:15:10;8.70;50.50
19397;DHT22;9834;48.076;11.878;2023-03-15T13:17:46;9.70;51.40
19397;DHT22;9834;48.076;11.878;2023-03-15T13:20:28;10.60;45.90
19397;DHT22;9834;48.076;11.878;2023-03-15T13:23:05;9.60;47.30
19397;DHT22;9834;48.076;11.878;2023-03-15T13:25:46;8.20;49.20
19397;DHT22;9834;48.076;11.878;2023-03-15T13:28:20;7.50;51.50
19397;DHT22;9834;48.076;11.878;2023-03-15T13:30:50;7.20;51.90
19397;DHT22;9834;48.076;11.878;2023-03-15T13:33:21;7.20;52.60
19397;DHT22;9834;48.076;11.878;2023-03-15T13:35:55;7.40;54.50
19397;DHT22;9834;48.076;11.878;2023-03-15T13:38:29;7.70;54.00
19397;DHT22;9834;48.076;11.878;2023-03-15T13:40:58;7.90;51.90
19397;DHT22;9834;48.076;11.878;2023-03-15T13:43:28;7.90;53.80
19397;DHT22;9834;48.076;11.878;2023-03-15T13:45:56;7.80;52.70
19397;DHT22;9834;48.076;11.878;2023-03-15T13:48:28;7.70;53.50
19397;DHT22;9834;48.076;11.878;2023-03-15T13:51:02;7.70;53.50
19397;DHT22;9834;48.076;11.878;2023-03-15T13:53:32;7.60;52.80
19397;DHT22;9834;48.076;11.878;2023-03-15T13:56:00;7.50;52.20
19397;DHT22;9834;48.076;11.878;2023-03-15T13:58:27;7.30;54.40
19397;DHT22;9834;48.076;11.878;2023-03-15T14:00:57;6.90;54.90
19397;DHT22;9834;48.076;11.878;2023-03-15T14:03:27;6.60;56.60
19397;DHT22;9834;48.076;11.878;2023-03-15T14:05:56;6.50;57.30
19397;DHT22;9834;48.076;11.878;2023-03-15T14:08:25;6.50;57.70
19397;DHT22;9834;48.076;11.878;2023-03-15T14:11:08;6.70;57.80
19397;DHT22;9834;48.076;11.878;2023-03-15T14:13:47;7.10;58.10
19397;DHT22;9834;48.076;11.878;2023-03-15T14:16:16;7.80;57.60
19397;DHT22;9834;48.076;11.878;2023-03-15T14:19:07;7.90;55.90
19397;DHT22;9834;48.076;11.878;2023-03-15T14:21:41;7.70;54.10
19397;DHT22;9834;48.076;11.878;2023-03-15T14:24:13;7.70;55.20
19397;DHT22;9834;48.076;11.878;2023-03-15T14:26:42;7.40;55.00
19397;DHT22;9834;48.076;11.878;2023-03-15T14:29:16;7.10;56.60
19397;DHT22;9834;48.076;11.878;2023-03-15T14:31:47;7.00;55.40
19397;DHT22;9834;48.076;11.878;2023-03-15T14:34:22;7.00;56.00
19397;DHT22;9834;48.076;11.878;2023-03-15T14:36:50;7.20;55.40
19397;DHT22;9834;48.076;11.878;2023-03-15T14:39:23;7.80;54.20
19397;DHT22;9834;48.076;11.878;2023-03-15T14:41:50;7.90;53.40
19397;DHT22;9834;48.076;11.878;2023-03-15T14:44:17;7.80;53.60
19397;DHT22;9834;48.076;11.878;2023-03-15T14:46:45;7.70;54.20
19397;DHT22;9834;48.076;11.878;2023-03-15T14:49:25;7.70;54.90
19397;DHT22;9834;48.076;11.878;2023-03-15T14:51:57;7.60;54.50
19397;DHT22;9834;48.076;11.878;2023-03-15T14:54:25;7.70;54.60
19397;DHT22;9834;48.076;11.878;2023-03-15T14:56:54;7.60;54.70
19397;DHT22;9834;48.076;11.878;2023-03-15T14:59:21;7.30;54.60
19397;DHT22;9834;48.076;11.878;2023-03-15T15:01:51;7.00;54.70
19397;DHT22;9834;48.076;11.878;2023-03-15T15:04:20;6.80;55.60
19397;DHT22;9834;48.076;11.878;2023-03-15T15:06:48;6.60;56.60
19397;DHT22;9834;48.076;11.878;2023-03-15T15:09:22;6.50;57.20
19397;DHT22;9834;48.076;11.878;2023-03-15T15:11:51;6.30;57.80
19397;DHT22;9834;48.076;11.878;2023-03-15T15:14:19;6.30;58.20
19397;DHT22;9834;48.076;11.878;2023-03-15T15:16:48;6.30;58.30
19397;DHT22;9834;48.076;11.878;2023-03-15T15:19:16;6.40;57.70
19397;DHT22;9834;48.076;11.878;2023-03-15T15:21:43;6.60;58.30
19397;DHT22;9834;48.076;11.878;2023-03-15T15:24:14;6.80;58.60
19397;DHT22;9834;48.076;11.878;2023-03-15T15:26:44;7.20;58.40
19397;DHT22;9834;48.076;11.878;2023-03-15T15:29:12;7.30;58.30
19397;DHT22;9834;48.076;11.878;2023-03-15T15:31:40;7.00;58.90
19397;DHT22;9834;48.076;11.878;2023-03-15T15:34:08;6.60;59.30
19397;DHT22;9834;48.076;11.878;2023-03-15T15:36:38;6.30;60.20
19397;DHT22;9834;48.076;11.878;2023-03-15T15:39:15;6.10;61.80
19397;DHT22;9834;48.076;11.878;2023-03-15T15:41:45;6.00;62.90
19397;DHT22;9834;48.076;11.878;2023-03-15T15:44:14;6.00;63.40
19397;DHT22;9834;48.076;11.878;2023-03-15T15:46:42;5.90;61.90
19397;DHT22;9834;48.076;11.878;2023-03-15T15:49:10;5.90;62.90
19397;DHT22;9834;48.076;11.878;2023-03-15T15:51:39;6.10;63.90
19397;DHT22;9834;48.076;11.878;2023-03-15T15:54:13;6.30;62.40
19397;DHT22;9834;48.076;11.878;2023-03-15T15:56:47;6.50;61.70
19397;DHT22;9834;48.076;11.878;2023-03-15T15:59:16;6.50;59.10
19397;DHT22;9834;48.076;11.878;2023-03-15T16:01:44;6.60;58.60
19397;DHT22;9834;48.076;11.878;2023-03-15T16:04:13;6.40;58.80
19397;DHT22;9834;48.076;11.878;2023-03-15T16:06:41;6.30;59.60
19397;DHT22;9834;48.076;11.878;2023-03-15T16:09:11;6.20;64.20